sensor_id;sensor_type;location;lat;lon;timestamp;P1;durP1;ratioP1;P2;durP2;ratioP2
8622;SDS011;4349;47.552;8.904;2023-02-28T00:01:28;6.70;;;6.10;;
8622;SDS011;4349;47.552;8.904;2023-02-28T00:03:57;6.90;;;6.40;;
8622;SDS011;4349;47.552;8.904;2023-02-28T00:06:26;6.70;;;6.20;;
8622;SDS011;4349;47.552;8.904;2023-02-28T00:08:55;6.70;;;6.10;;
8622;SDS011;4349;47.552;8.904;2023-02-28T00:11:24;7.17;;;6.57;;
8622;SDS011;4349;47.552;8.904;2023-02-28T00:13:53;6.47;;;5.90;;
8622;SDS011;4349;47.552;8.904;2023-02-28T00:16:21;6.67;;;6.20;;
8622;SDS011;4349;47.552;8.904;2023-02-28T00:18:49;7.10;;;6.50;;
8622;SDS011;4349;47.552;8.904;2023-02-28T00:21:17;7.17;;;6.50;;
8622;SDS011;4349;47.552;8.904;2023-02-28T00:23:47;7.00;;;6.30;;
8622;SDS011;4349;47.552;8.904;2023-02-28T00:26:15;6.83;;;6.23;;
8622;SDS011;4349;47.552;8.904;2023-02-28T00:28:46;7.57;;;6.77;;
8622;SDS011;4349;47.552;8.904;2023-02-28T00:31:14;7.20;;;6.60;;
8622;SDS011;4349;47.552;8.904;2023-02-28T00:33:42;6.50;;;6.00;;
8622;SDS011;4349;47.552;8.904;2023-02-28T00:36:10;7.47;;;6.77;;
8622;SDS011;4349;47.552;8.904;2023-02-28T00:38:39;6.80;;;6.23;;
8622;SDS011;4349;47.552;8.904;2023-02-28T00:41:09;7.33;;;6.60;;
8622;SDS011;4349;47.552;8.904;2023-02-28T00:43:38;6.87;;;6.27;;
8622;SDS011;4349;47.552;8.904;2023-02-28T00:46:10;7.70;;;7.07;;
8622;SDS011;4349;47.552;8.904;2023-02-28T00:48:39;7.10;;;6.50;;
8622;SDS011;4349;47.552;8.904;2023-02-28T00:51:07;7.77;;;6.97;;
8622;SDS011;4349;47.552;8.904;2023-02-28T00:53:38;7.43;;;6.80;;
8622;SDS011;4349;47.552;8.904;2023-02-28T00:56:06;7.80;;;7.00;;
8622;SDS011;4349;47.552;8.904;2023-02-28T00:58:35;8.03;;;7.23;;
8622;SDS011;4349;47.552;8.904;2023-02-28T01:01:04;7.10;;;6.50;;
8622;SDS011;4349;47.552;8.904;2023-02-28T01:03:32;7.00;;;6.40;;
8622;SDS011;4349;47.552;8.904;2023-02-28T01:06:01;7.27;;;6.60;;
8622;SDS011;4349;47.552;8.904;2023-02-28T01:08:29;7.10;;;6.40;;
8622;SDS011;4349;47.552;8.904;2023-02-28T01:10:56;7.60;;;6.90;;
8622;SDS011;4349;47.552;8.904;2023-02-28T01:13:24;7.80;;;7.20;;
8622;SDS011;4349;47.552;8.904;2023-02-28T01:15:55;7.43;;;6.83;;
8622;SDS011;4349;47.552;8.904;2023-02-28T01:18:25;7.07;;;6.37;;
8622;SDS011;4349;47.552;8.904;2023-02-28T01:20:53;7.70;;;7.00;;
8622;SDS011;4349;47.552;8.904;2023-02-28T01:23:23;7.87;;;7.13;;
8622;SDS011;4349;47.552;8.904;2023-02-28T01:25:52;7.57;;;6.90;;
8622;SDS011;4349;47.552;8.904;2023-02-28T01:28:20;7.23;;;6.50;;
8622;SDS011;4349;47.552;8.904;2023-02-28T01:30:48;7.73;;;7.03;;
8622;SDS011;4349;47.552;8.904;2023-02-28T01:33:17;7.40;;;6.80;;
8622;SDS011;4349;47.552;8.904;2023-02-28T01:35:45;7.90;;;7.30;;
8622;SDS011;4349;47.552;8.904;2023-02-28T01:38:12;7.87;;;7.20;;
8622;SDS011;4349;47.552;8.904;2023-02-28T01:40:48;7.93;;;7.23;;
8622;SDS011;4349;47.552;8.904;2023-02-28T01:43:19;7.80;;;7.20;;
8622;SDS011;4349;47.552;8.904;2023-02-28T01:45:47;7.37;;;6.77;;
8622;SDS011;4349;47.552;8.904;2023-02-28T01:48:14;7.20;;;6.50;;
8622;SDS011;4349;47.552;8.904;2023-02-28T01:50:43;8.10;;;6.93;;
8622;SDS011;4349;47.552;8.904;2023-02-28T01:53:15;6.50;;;6.10;;
8622;SDS011;4349;47.552;8.904;2023-02-28T01:55:48;6.80;;;6.30;;
8622;SDS011;4349;47.552;8.904;2023-02-28T01:58:19;7.17;;;6.67;;
8622;SDS011;4349;47.552;8.904;2023-02-28T02:00:47;7.40;;;6.80;;
8622;SDS011;4349;47.552;8.904;2023-02-28T02:03:16;6.73;;;6.33;;
8622;SDS011;4349;47.552;8.904;2023-02-28T02:05:46;6.80;;;6.30;;
8622;SDS011;4349;47.552;8.904;2023-02-28T02:08:17;7.30;;;6.70;;
8622;SDS011;4349;47.552;8.904;2023-02-28T02:10:48;7.27;;;6.60;;
8622;SDS011;4349;47.552;8.904;2023-02-28T02:13:30;8.13;;;6.53;;
8622;SDS011;4349;47.552;8.904;2023-02-28T02:16:04;7.00;;;6.40;;
8622;SDS011;4349;47.552;8.904;2023-02-28T02:18:36;7.53;;;6.90;;
8622;SDS011;4349;47.552;8.904;2023-02-28T02:26:54;7.30;;;6.77;;
8622;SDS011;4349;47.552;8.904;2023-02-28T02:32:13;7.10;;;6.53;;
8622;SDS011;4349;47.552;8.904;2023-02-28T02:34:53;6.90;;;6.40;;
8622;SDS011;4349;47.552;8.904;2023-02-28T02:37:27;7.67;;;7.03;;
8622;SDS011;4349;47.552;8.904;2023-02-28T02:40:00;7.13;;;6.53;;
8622;SDS011;4349;47.552;8.904;2023-02-28T02:42:34;7.30;;;6.60;;
8622;SDS011;4349;47.552;8.904;2023-02-28T02:45:05;7.03;;;6.43;;
8622;SDS011;4349;47.552;8.904;2023-02-28T02:47:34;6.73;;;6.13;;
8622;SDS011;4349;47.552;8.904;2023-02-28T02:50:05;7.10;;;6.50;;
8622;SDS011;4349;47.552;8.904;2023-02-28T02:52:34;7.43;;;6.83;;
8622;SDS011;4349;47.552;8.904;2023-02-28T02:55:06;7.63;;;6.37;;
8622;SDS011;4349;47.552;8.904;2023-02-28T02:57:38;6.90;;;6.37;;
8622;SDS011;4349;47.552;8.904;2023-02-28T03:00:08;7.13;;;6.53;;
8622;SDS011;4349;47.552;8.904;2023-02-28T03:02:36;7.23;;;6.53;;
8622;SDS011;4349;47.552;8.904;2023-02-28T03:05:06;7.20;;;6.50;;
8622;SDS011;4349;47.552;8.904;2023-02-28T03:07:35;6.80;;;6.20;;
8622;SDS011;4349;47.552;8.904;2023-02-28T03:12:49;6.80;;;6.10;;
8622;SDS011;4349;47.552;8.904;2023-02-28T03:15:20;6.70;;;6.10;;
8622;SDS011;4349;47.552;8.904;2023-02-28T03:17:57;7.47;;;6.87;;
8622;SDS011;4349;47.552;8.904;2023-02-28T03:20:35;7.63;;;6.93;;
8622;SDS011;4349;47.552;8.904;2023-02-28T03:23:07;6.27;;;5.87;;
8622;SDS011;4349;47.552;8.904;2023-02-28T03:25:45;6.90;;;6.30;;
8622;SDS011;4349;47.552;8.904;2023-02-28T03:28:19;6.80;;;6.30;;
8622;SDS011;4349;47.552;8.904;2023-02-28T03:30:51;6.70;;;6.20;;
8622;SDS011;4349;47.552;8.904;2023-02-28T03:33:21;7.03;;;6.53;;
8622;SDS011;4349;47.552;8.904;2023-02-28T03:35:52;6.90;;;6.30;;
8622;SDS011;4349;47.552;8.904;2023-02-28T03:38:24;6.93;;;6.37;;
8622;SDS011;4349;47.552;8.904;2023-02-28T03:40:56;6.47;;;6.00;;
8622;SDS011;4349;47.552;8.904;2023-02-28T03:43:28;6.97;;;6.47;;
8622;SDS011;4349;47.552;8.904;2023-02-28T03:45:56;6.83;;;6.23;;
8622;SDS011;4349;47.552;8.904;2023-02-28T03:48:27;6.53;;;6.03;;
8622;SDS011;4349;47.552;8.904;2023-02-28T03:50:59;6.67;;;6.10;;
8622;SDS011;4349;47.552;8.904;2023-02-28T03:53:30;6.60;;;6.13;;
8622;SDS011;4349;47.552;8.904;2023-02-28T03:56:01;6.60;;;6.10;;
8622;SDS011;4349;47.552;8.904;2023-02-28T03:58:32;6.43;;;6.00;;
8622;SDS011;4349;47.552;8.904;2023-02-28T04:01:05;6.97;;;6.47;;
8622;SDS011;4349;47.552;8.904;2023-02-28T04:03:35;7.10;;;6.50;;
8622;SDS011;4349;47.552;8.904;2023-02-28T04:06:04;6.60;;;6.10;;
8622;SDS011;4349;47.552;8.904;2023-02-28T04:08:33;6.53;;;6.03;;
8622;SDS011;4349;47.552;8.904;2023-02-28T04:11:03;6.53;;;6.00;;
8622;SDS011;4349;47.552;8.904;2023-02-28T04:13:36;6.77;;;6.27;;
8622;SDS011;4349;47.552;8.904;2023-02-28T04:16:06;6.93;;;6.33;;
8622;SDS011;4349;47.552;8.904;2023-02-28T04:18:46;6.40;;;5.90;;
8622;SDS011;4349;47.552;8.904;2023-02-28T04:21:16;6.23;;;5.73;;
8622;SDS011;4349;47.552;8.904;2023-02-28T04:23:47;5.90;;;5.50;;
8622;SDS011;4349;47.552;8.904;2023-02-28T04:26:15;6.10;;;5.70;;
8622;SDS011;4349;47.552;8.904;2023-02-28T04:28:44;6.70;;;6.20;;
8622;SDS011;4349;47.552;8.904;2023-02-28T04:31:13;6.83;;;6.23;;
8622;SDS011;4349;47.552;8.904;2023-02-28T04:33:41;6.60;;;6.07;;
8622;SDS011;4349;47.552;8.904;2023-02-28T04:36:10;6.43;;;5.90;;
8622;SDS011;4349;47.552;8.904;2023-02-28T04:38:41;6.50;;;6.07;;
8622;SDS011;4349;47.552;8.904;2023-02-28T04:41:08;6.70;;;6.10;;
8622;SDS011;4349;47.552;8.904;2023-02-28T04:43:36;6.40;;;5.90;;
8622;SDS011;4349;47.552;8.904;2023-02-28T04:46:04;6.70;;;6.10;;
8622;SDS011;4349;47.552;8.904;2023-02-28T04:48:34;6.53;;;5.93;;
8622;SDS011;4349;47.552;8.904;2023-02-28T04:51:03;6.80;;;6.30;;
8622;SDS011;4349;47.552;8.904;2023-02-28T04:53:31;6.30;;;5.83;;
8622;SDS011;4349;47.552;8.904;2023-02-28T04:56:00;6.37;;;5.97;;
8622;SDS011;4349;47.552;8.904;2023-02-28T04:58:29;6.67;;;6.17;;
8622;SDS011;4349;47.552;8.904;2023-02-28T05:01:01;6.67;;;6.17;;
8622;SDS011;4349;47.552;8.904;2023-02-28T05:03:29;6.80;;;6.30;;
8622;SDS011;4349;47.552;8.904;2023-02-28T05:05:56;6.50;;;5.97;;
8622;SDS011;4349;47.552;8.904;2023-02-28T05:08:24;6.37;;;5.87;;
8622;SDS011;4349;47.552;8.904;2023-02-28T05:10:51;6.40;;;5.77;;
8622;SDS011;4349;47.552;8.904;2023-02-28T05:13:21;7.03;;;6.43;;
8622;SDS011;4349;47.552;8.904;2023-02-28T05:15:49;6.40;;;5.90;;
8622;SDS011;4349;47.552;8.904;2023-02-28T05:18:19;6.53;;;5.93;;
8622;SDS011;4349;47.552;8.904;2023-02-28T05:20:46;6.50;;;6.00;;
8622;SDS011;4349;47.552;8.904;2023-02-28T05:23:14;6.50;;;6.00;;
8622;SDS011;4349;47.552;8.904;2023-02-28T05:25:42;6.33;;;5.93;;
8622;SDS011;4349;47.552;8.904;2023-02-28T05:28:11;6.77;;;6.27;;
8622;SDS011;4349;47.552;8.904;2023-02-28T05:30:41;6.60;;;6.17;;
8622;SDS011;4349;47.552;8.904;2023-02-28T05:33:09;7.10;;;6.50;;
8622;SDS011;4349;47.552;8.904;2023-02-28T05:35:38;6.33;;;5.83;;
8622;SDS011;4349;47.552;8.904;2023-02-28T05:38:05;6.73;;;6.23;;
8622;SDS011;4349;47.552;8.904;2023-02-28T05:40:34;7.67;;;6.90;;
8622;SDS011;4349;47.552;8.904;2023-02-28T05:43:03;7.00;;;6.50;;
8622;SDS011;4349;47.552;8.904;2023-02-28T05:45:31;7.10;;;6.60;;
8622;SDS011;4349;47.552;8.904;2023-02-28T05:47:59;7.00;;;6.50;;
8622;SDS011;4349;47.552;8.904;2023-02-28T05:50:27;6.73;;;6.23;;
8622;SDS011;4349;47.552;8.904;2023-02-28T05:52:54;6.83;;;6.33;;
8622;SDS011;4349;47.552;8.904;2023-02-28T05:55:22;7.60;;;6.90;;
8622;SDS011;4349;47.552;8.904;2023-02-28T05:57:50;6.50;;;6.00;;
8622;SDS011;4349;47.552;8.904;2023-02-28T06:00:18;7.70;;;7.00;;
8622;SDS011;4349;47.552;8.904;2023-02-28T06:02:45;6.93;;;6.40;;
8622;SDS011;4349;47.552;8.904;2023-02-28T06:05:16;6.70;;;6.20;;
8622;SDS011;4349;47.552;8.904;2023-02-28T06:07:44;7.60;;;6.90;;
8622;SDS011;4349;47.552;8.904;2023-02-28T06:10:12;7.50;;;6.90;;
8622;SDS011;4349;47.552;8.904;2023-02-28T06:12:40;7.20;;;6.60;;
8622;SDS011;4349;47.552;8.904;2023-02-28T06:15:10;7.53;;;6.83;;
8622;SDS011;4349;47.552;8.904;2023-02-28T06:17:40;7.20;;;6.60;;
8622;SDS011;4349;47.552;8.904;2023-02-28T06:20:09;7.37;;;6.77;;
8622;SDS011;4349;47.552;8.904;2023-02-28T06:22:40;7.40;;;6.80;;
8622;SDS011;4349;47.552;8.904;2023-02-28T06:25:09;7.40;;;6.80;;
8622;SDS011;4349;47.552;8.904;2023-02-28T06:27:37;7.53;;;6.87;;
8622;SDS011;4349;47.552;8.904;2023-02-28T06:30:05;7.70;;;7.07;;
8622;SDS011;4349;47.552;8.904;2023-02-28T06:32:33;7.07;;;6.57;;
8622;SDS011;4349;47.552;8.904;2023-02-28T06:35:02;7.77;;;6.97;;
8622;SDS011;4349;47.552;8.904;2023-02-28T06:37:31;7.77;;;7.10;;
8622;SDS011;4349;47.552;8.904;2023-02-28T06:40:00;8.00;;;7.30;;
8622;SDS011;4349;47.552;8.904;2023-02-28T06:42:28;7.43;;;6.87;;
8622;SDS011;4349;47.552;8.904;2023-02-28T06:44:57;7.60;;;7.10;;
8622;SDS011;4349;47.552;8.904;2023-02-28T06:47:26;8.73;;;7.90;;
8622;SDS011;4349;47.552;8.904;2023-02-28T06:49:53;7.93;;;7.23;;
8622;SDS011;4349;47.552;8.904;2023-02-28T06:52:21;8.03;;;7.33;;
8622;SDS011;4349;47.552;8.904;2023-02-28T06:54:49;8.37;;;7.53;;
8622;SDS011;4349;47.552;8.904;2023-02-28T06:57:29;8.80;;;7.20;;
8622;SDS011;4349;47.552;8.904;2023-02-28T06:59:59;7.90;;;7.20;;
8622;SDS011;4349;47.552;8.904;2023-02-28T07:02:27;8.23;;;7.53;;
8622;SDS011;4349;47.552;8.904;2023-02-28T07:04:55;7.77;;;7.00;;
8622;SDS011;4349;47.552;8.904;2023-02-28T07:07:23;8.20;;;7.40;;
8622;SDS011;4349;47.552;8.904;2023-02-28T07:09:51;8.07;;;7.37;;
8622;SDS011;4349;47.552;8.904;2023-02-28T07:12:19;8.43;;;7.70;;
8622;SDS011;4349;47.552;8.904;2023-02-28T07:14:48;7.70;;;7.03;;
8622;SDS011;4349;47.552;8.904;2023-02-28T07:17:16;8.20;;;7.53;;
8622;SDS011;4349;47.552;8.904;2023-02-28T07:19:44;7.70;;;7.10;;
8622;SDS011;4349;47.552;8.904;2023-02-28T07:22:11;7.60;;;6.90;;
8622;SDS011;4349;47.552;8.904;2023-02-28T07:24:42;9.23;;;7.27;;
8622;SDS011;4349;47.552;8.904;2023-02-28T07:27:12;9.50;;;7.97;;
8622;SDS011;4349;47.552;8.904;2023-02-28T07:29:53;8.30;;;7.50;;
8622;SDS011;4349;47.552;8.904;2023-02-28T07:32:22;7.83;;;7.20;;
8622;SDS011;4349;47.552;8.904;2023-02-28T07:34:50;8.60;;;7.77;;
8622;SDS011;4349;47.552;8.904;2023-02-28T07:37:18;7.77;;;7.17;;
8622;SDS011;4349;47.552;8.904;2023-02-28T07:39:46;8.20;;;7.50;;
8622;SDS011;4349;47.552;8.904;2023-02-28T07:42:13;8.00;;;7.30;;
8622;SDS011;4349;47.552;8.904;2023-02-28T07:44:43;8.90;;;7.83;;
8622;SDS011;4349;47.552;8.904;2023-02-28T07:47:12;7.97;;;7.37;;
8622;SDS011;4349;47.552;8.904;2023-02-28T07:49:39;9.43;;;8.00;;
8622;SDS011;4349;47.552;8.904;2023-02-28T07:52:08;8.53;;;7.77;;
8622;SDS011;4349;47.552;8.904;2023-02-28T07:54:38;8.43;;;7.63;;
8622;SDS011;4349;47.552;8.904;2023-02-28T07:57:06;8.43;;;7.63;;
8622;SDS011;4349;47.552;8.904;2023-02-28T07:59:34;8.53;;;7.83;;
8622;SDS011;4349;47.552;8.904;2023-02-28T08:02:01;7.80;;;7.10;;
8622;SDS011;4349;47.552;8.904;2023-02-28T08:04:32;8.23;;;7.53;;
8622;SDS011;4349;47.552;8.904;2023-02-28T08:07:01;8.97;;;7.23;;
8622;SDS011;4349;47.552;8.904;2023-02-28T08:09:28;9.30;;;7.47;;
8622;SDS011;4349;47.552;8.904;2023-02-28T08:11:56;8.23;;;7.53;;
8622;SDS011;4349;47.552;8.904;2023-02-28T08:14:24;8.17;;;7.47;;
8622;SDS011;4349;47.552;8.904;2023-02-28T08:16:52;8.67;;;7.87;;
8622;SDS011;4349;47.552;8.904;2023-02-28T08:19:21;8.93;;;8.13;;
8622;SDS011;4349;47.552;8.904;2023-02-28T08:21:50;8.43;;;7.63;;
8622;SDS011;4349;47.552;8.904;2023-02-28T08:24:18;8.63;;;7.83;;
8622;SDS011;4349;47.552;8.904;2023-02-28T08:26:46;8.20;;;7.43;;
8622;SDS011;4349;47.552;8.904;2023-02-28T08:29:13;9.90;;;8.90;;
8622;SDS011;4349;47.552;8.904;2023-02-28T08:31:41;8.77;;;7.87;;
8622;SDS011;4349;47.552;8.904;2023-02-28T08:34:19;8.33;;;7.63;;
8622;SDS011;4349;47.552;8.904;2023-02-28T08:36:47;9.03;;;8.23;;
8622;SDS011;4349;47.552;8.904;2023-02-28T08:39:17;8.37;;;7.67;;
8622;SDS011;4349;47.552;8.904;2023-02-28T08:41:46;8.43;;;7.73;;
8622;SDS011;4349;47.552;8.904;2023-02-28T08:44:32;8.70;;;7.90;;
8622;SDS011;4349;47.552;8.904;2023-02-28T08:47:00;8.13;;;7.47;;
8622;SDS011;4349;47.552;8.904;2023-02-28T08:49:28;9.00;;;8.10;;
8622;SDS011;4349;47.552;8.904;2023-02-28T08:51:56;8.97;;;8.17;;
8622;SDS011;4349;47.552;8.904;2023-02-28T08:54:29;8.97;;;8.10;;
8622;SDS011;4349;47.552;8.904;2023-02-28T08:56:58;8.57;;;7.60;;
8622;SDS011;4349;47.552;8.904;2023-02-28T08:59:26;8.47;;;7.77;;
8622;SDS011;4349;47.552;8.904;2023-02-28T09:01:54;8.70;;;7.90;;
8622;SDS011;4349;47.552;8.904;2023-02-28T09:04:22;8.47;;;7.77;;
8622;SDS011;4349;47.552;8.904;2023-02-28T09:06:51;8.90;;;8.17;;
8622;SDS011;4349;47.552;8.904;2023-02-28T09:09:20;8.30;;;7.70;;
8622;SDS011;4349;47.552;8.904;2023-02-28T09:11:49;8.70;;;7.97;;
8622;SDS011;4349;47.552;8.904;2023-02-28T09:14:17;9.73;;;7.90;;
8622;SDS011;4349;47.552;8.904;2023-02-28T09:16:50;8.87;;;7.97;;
8622;SDS011;4349;47.552;8.904;2023-02-28T09:19:19;9.27;;;8.37;;
8622;SDS011;4349;47.552;8.904;2023-02-28T09:21:48;8.60;;;7.90;;
8622;SDS011;4349;47.552;8.904;2023-02-28T09:24:16;9.00;;;8.10;;
8622;SDS011;4349;47.552;8.904;2023-02-28T09:26:44;8.70;;;7.90;;
8622;SDS011;4349;47.552;8.904;2023-02-28T09:29:30;8.93;;;8.13;;
8622;SDS011;4349;47.552;8.904;2023-02-28T09:31:57;8.87;;;8.07;;
8622;SDS011;4349;47.552;8.904;2023-02-28T09:34:26;8.53;;;7.73;;
8622;SDS011;4349;47.552;8.904;2023-02-28T09:36:57;8.77;;;7.93;;
8622;SDS011;4349;47.552;8.904;2023-02-28T09:39:26;9.63;;;7.97;;
8622;SDS011;4349;47.552;8.904;2023-02-28T09:41:55;11.03;;;8.17;;
8622;SDS011;4349;47.552;8.904;2023-02-28T09:44:26;8.80;;;8.10;;
8622;SDS011;4349;47.552;8.904;2023-02-28T09:46:58;8.47;;;7.77;;
8622;SDS011;4349;47.552;8.904;2023-02-28T09:49:28;8.77;;;8.07;;
8622;SDS011;4349;47.552;8.904;2023-02-28T09:52:00;9.57;;;8.63;;
8622;SDS011;4349;47.552;8.904;2023-02-28T09:54:30;9.33;;;8.33;;
8622;SDS011;4349;47.552;8.904;2023-02-28T09:57:00;8.67;;;7.93;;
8622;SDS011;4349;47.552;8.904;2023-02-28T09:59:32;10.00;;;9.00;;
8622;SDS011;4349;47.552;8.904;2023-02-28T10:02:16;11.23;;;9.23;;
8622;SDS011;4349;47.552;8.904;2023-02-28T10:04:46;9.57;;;8.77;;
8622;SDS011;4349;47.552;8.904;2023-02-28T10:07:21;9.27;;;8.37;;
8622;SDS011;4349;47.552;8.904;2023-02-28T10:09:52;8.97;;;8.20;;
8622;SDS011;4349;47.552;8.904;2023-02-28T10:12:20;11.60;;;8.57;;
8622;SDS011;4349;47.552;8.904;2023-02-28T10:14:50;9.73;;;8.83;;
8622;SDS011;4349;47.552;8.904;2023-02-28T10:17:21;10.40;;;9.07;;
8622;SDS011;4349;47.552;8.904;2023-02-28T10:19:56;10.30;;;9.40;;
8622;SDS011;4349;47.552;8.904;2023-02-28T10:22:27;9.30;;;8.50;;
8622;SDS011;4349;47.552;8.904;2023-02-28T10:25:04;9.30;;;8.23;;
8622;SDS011;4349;47.552;8.904;2023-02-28T10:27:33;9.87;;;8.77;;
8622;SDS011;4349;47.552;8.904;2023-02-28T10:30:02;10.00;;;9.00;;
8622;SDS011;4349;47.552;8.904;2023-02-28T10:32:32;9.47;;;8.53;;
8622;SDS011;4349;47.552;8.904;2023-02-28T10:35:07;9.00;;;8.20;;
8622;SDS011;4349;47.552;8.904;2023-02-28T10:37:37;9.80;;;8.30;;
8622;SDS011;4349;47.552;8.904;2023-02-28T10:40:07;9.80;;;8.83;;
8622;SDS011;4349;47.552;8.904;2023-02-28T10:42:54;10.13;;;9.20;;
8622;SDS011;4349;47.552;8.904;2023-02-28T10:45:23;9.60;;;8.80;;
8622;SDS011;4349;47.552;8.904;2023-02-28T10:47:53;10.43;;;9.37;;
8622;SDS011;4349;47.552;8.904;2023-02-28T10:50:29;9.67;;;8.87;;
8622;SDS011;4349;47.552;8.904;2023-02-28T10:53:05;9.70;;;8.80;;
8622;SDS011;4349;47.552;8.904;2023-02-28T10:55:35;9.93;;;8.83;;
8622;SDS011;4349;47.552;8.904;2023-02-28T10:58:03;9.93;;;9.03;;
8622;SDS011;4349;47.552;8.904;2023-02-28T11:00:40;9.60;;;8.70;;
8622;SDS011;4349;47.552;8.904;2023-02-28T11:03:13;10.20;;;9.20;;
8622;SDS011;4349;47.552;8.904;2023-02-28T11:05:51;9.50;;;8.60;;
8622;SDS011;4349;47.552;8.904;2023-02-28T11:08:20;9.90;;;8.90;;
8622;SDS011;4349;47.552;8.904;2023-02-28T11:10:48;10.07;;;9.03;;
8622;SDS011;4349;47.552;8.904;2023-02-28T11:13:17;10.37;;;9.37;;
8622;SDS011;4349;47.552;8.904;2023-02-28T11:15:49;10.23;;;9.23;;
8622;SDS011;4349;47.552;8.904;2023-02-28T11:18:21;11.40;;;9.13;;
8622;SDS011;4349;47.552;8.904;2023-02-28T11:20:51;9.63;;;8.67;;
8622;SDS011;4349;47.552;8.904;2023-02-28T11:23:21;10.30;;;8.57;;
8622;SDS011;4349;47.552;8.904;2023-02-28T11:25:52;10.07;;;9.03;;
8622;SDS011;4349;47.552;8.904;2023-02-28T11:28:25;11.03;;;9.87;;
8622;SDS011;4349;47.552;8.904;2023-02-28T11:31:00;9.77;;;8.87;;
8622;SDS011;4349;47.552;8.904;2023-02-28T11:33:30;10.23;;;9.23;;
8622;SDS011;4349;47.552;8.904;2023-02-28T11:36:00;9.50;;;8.60;;
8622;SDS011;4349;47.552;8.904;2023-02-28T11:38:27;9.60;;;8.70;;
8622;SDS011;4349;47.552;8.904;2023-02-28T11:41:03;10.60;;;9.60;;
8622;SDS011;4349;47.552;8.904;2023-02-28T11:43:37;10.30;;;9.30;;
8622;SDS011;4349;47.552;8.904;2023-02-28T11:46:12;10.23;;;9.33;;
8622;SDS011;4349;47.552;8.904;2023-02-28T11:48:47;10.57;;;9.57;;
8622;SDS011;4349;47.552;8.904;2023-02-28T11:51:18;10.40;;;9.30;;
8622;SDS011;4349;47.552;8.904;2023-02-28T11:53:50;10.73;;;9.73;;
8622;SDS011;4349;47.552;8.904;2023-02-28T11:56:22;10.50;;;9.40;;
8622;SDS011;4349;47.552;8.904;2023-02-28T11:58:52;10.80;;;9.70;;
8622;SDS011;4349;47.552;8.904;2023-02-28T12:01:24;9.83;;;8.93;;
8622;SDS011;4349;47.552;8.904;2023-02-28T12:04:01;10.43;;;9.43;;
8622;SDS011;4349;47.552;8.904;2023-02-28T12:06:32;10.10;;;9.10;;
8622;SDS011;4349;47.552;8.904;2023-02-28T12:09:03;9.67;;;8.77;;
8622;SDS011;4349;47.552;8.904;2023-02-28T12:11:35;10.43;;;9.43;;
8622;SDS011;4349;47.552;8.904;2023-02-28T12:14:15;10.10;;;9.20;;
8622;SDS011;4349;47.552;8.904;2023-02-28T12:16:47;10.70;;;9.70;;
8622;SDS011;4349;47.552;8.904;2023-02-28T12:19:20;10.53;;;9.53;;
8622;SDS011;4349;47.552;8.904;2023-02-28T12:22:09;10.73;;;9.63;;
8622;SDS011;4349;47.552;8.904;2023-02-28T12:24:45;11.57;;;10.37;;
8622;SDS011;4349;47.552;8.904;2023-02-28T12:27:17;10.30;;;9.23;;
8622;SDS011;4349;47.552;8.904;2023-02-28T12:29:50;10.63;;;9.60;;
8622;SDS011;4349;47.552;8.904;2023-02-28T12:32:23;9.67;;;8.67;;
8622;SDS011;4349;47.552;8.904;2023-02-28T12:34:59;10.93;;;9.83;;
8622;SDS011;4349;47.552;8.904;2023-02-28T12:37:31;9.33;;;8.53;;
8622;SDS011;4349;47.552;8.904;2023-02-28T12:40:06;10.20;;;9.20;;
8622;SDS011;4349;47.552;8.904;2023-02-28T12:42:36;10.87;;;9.77;;
8622;SDS011;4349;47.552;8.904;2023-02-28T12:45:09;11.60;;;10.10;;
8622;SDS011;4349;47.552;8.904;2023-02-28T12:47:38;10.00;;;9.00;;
8622;SDS011;4349;47.552;8.904;2023-02-28T12:50:12;11.20;;;10.00;;
8622;SDS011;4349;47.552;8.904;2023-02-28T12:52:45;11.00;;;9.97;;
8622;SDS011;4349;47.552;8.904;2023-02-28T12:55:19;10.33;;;9.43;;
8622;SDS011;4349;47.552;8.904;2023-02-28T12:57:51;10.97;;;9.87;;
8622;SDS011;4349;47.552;8.904;2023-02-28T13:00:22;11.77;;;10.20;;
8622;SDS011;4349;47.552;8.904;2023-02-28T13:02:57;12.13;;;10.83;;
8622;SDS011;4349;47.552;8.904;2023-02-28T13:08:26;11.43;;;10.33;;
8622;SDS011;4349;47.552;8.904;2023-02-28T13:10:59;11.37;;;10.27;;
8622;SDS011;4349;47.552;8.904;2023-02-28T13:13:30;11.67;;;10.47;;
8622;SDS011;4349;47.552;8.904;2023-02-28T13:16:04;11.27;;;10.07;;
8622;SDS011;4349;47.552;8.904;2023-02-28T13:18:34;12.93;;;10.73;;
8622;SDS011;4349;47.552;8.904;2023-02-28T13:21:05;11.23;;;9.90;;
8622;SDS011;4349;47.552;8.904;2023-02-28T13:23:40;11.27;;;10.17;;
8622;SDS011;4349;47.552;8.904;2023-02-28T13:26:07;13.00;;;11.60;;
8622;SDS011;4349;47.552;8.904;2023-02-28T13:34:20;12.93;;;10.90;;
8622;SDS011;4349;47.552;8.904;2023-02-28T13:36:48;12.77;;;10.90;;
8622;SDS011;4349;47.552;8.904;2023-02-28T13:42:15;12.33;;;10.87;;
8622;SDS011;4349;47.552;8.904;2023-02-28T13:47:40;11.87;;;10.57;;
8622;SDS011;4349;47.552;8.904;2023-02-28T13:50:19;12.33;;;11.03;;
8622;SDS011;4349;47.552;8.904;2023-02-28T13:52:48;11.93;;;10.73;;
8622;SDS011;4349;47.552;8.904;2023-02-28T13:55:25;11.93;;;10.73;;
8622;SDS011;4349;47.552;8.904;2023-02-28T13:58:03;12.53;;;11.07;;
8622;SDS011;4349;47.552;8.904;2023-02-28T14:00:39;12.27;;;11.07;;
8622;SDS011;4349;47.552;8.904;2023-02-28T14:08:34;13.20;;;11.63;;
8622;SDS011;4349;47.552;8.904;2023-02-28T14:11:03;12.93;;;11.57;;
8622;SDS011;4349;47.552;8.904;2023-02-28T14:13:39;13.63;;;11.40;;
8622;SDS011;4349;47.552;8.904;2023-02-28T14:16:11;14.03;;;11.47;;
8622;SDS011;4349;47.552;8.904;2023-02-28T14:18:41;14.00;;;11.60;;
8622;SDS011;4349;47.552;8.904;2023-02-28T14:21:10;13.20;;;11.87;;
8622;SDS011;4349;47.552;8.904;2023-02-28T14:26:48;12.43;;;11.13;;
8622;SDS011;4349;47.552;8.904;2023-02-28T14:29:22;12.97;;;11.63;;
8622;SDS011;4349;47.552;8.904;2023-02-28T14:31:58;13.23;;;11.93;;
8622;SDS011;4349;47.552;8.904;2023-02-28T14:34:35;13.37;;;11.57;;
8622;SDS011;4349;47.552;8.904;2023-02-28T14:37:03;13.37;;;11.97;;
8622;SDS011;4349;47.552;8.904;2023-02-28T14:39:34;16.30;;;12.53;;
8622;SDS011;4349;47.552;8.904;2023-02-28T14:42:24;14.40;;;12.30;;
8622;SDS011;4349;47.552;8.904;2023-02-28T14:44:56;14.30;;;12.80;;
8622;SDS011;4349;47.552;8.904;2023-02-28T14:47:25;13.43;;;11.70;;
8622;SDS011;4349;47.552;8.904;2023-02-28T14:49:54;14.50;;;12.53;;
8622;SDS011;4349;47.552;8.904;2023-02-28T14:52:23;14.77;;;12.27;;
8622;SDS011;4349;47.552;8.904;2023-02-28T14:54:55;16.20;;;12.80;;
8622;SDS011;4349;47.552;8.904;2023-02-28T14:57:25;15.83;;;12.53;;
8622;SDS011;4349;47.552;8.904;2023-02-28T15:00:01;13.90;;;12.33;;
8622;SDS011;4349;47.552;8.904;2023-02-28T15:02:34;16.97;;;12.77;;
8622;SDS011;4349;47.552;8.904;2023-02-28T15:05:10;13.80;;;12.40;;
8622;SDS011;4349;47.552;8.904;2023-02-28T15:07:43;14.03;;;12.53;;
8622;SDS011;4349;47.552;8.904;2023-02-28T15:10:19;13.90;;;12.50;;
8622;SDS011;4349;47.552;8.904;2023-02-28T15:12:51;14.37;;;12.33;;
8622;SDS011;4349;47.552;8.904;2023-02-28T15:15:25;14.23;;;12.53;;
8622;SDS011;4349;47.552;8.904;2023-02-28T15:18:07;16.50;;;14.17;;
8622;SDS011;4349;47.552;8.904;2023-02-28T15:20:36;16.40;;;13.90;;
8622;SDS011;4349;47.552;8.904;2023-02-28T15:23:07;15.60;;;13.07;;
8622;SDS011;4349;47.552;8.904;2023-02-28T15:25:35;16.30;;;12.90;;
8622;SDS011;4349;47.552;8.904;2023-02-28T15:28:03;15.53;;;13.73;;
8622;SDS011;4349;47.552;8.904;2023-02-28T15:30:31;17.17;;;13.33;;
8622;SDS011;4349;47.552;8.904;2023-02-28T15:33:02;15.63;;;12.87;;
8622;SDS011;4349;47.552;8.904;2023-02-28T15:35:31;16.97;;;14.00;;
8622;SDS011;4349;47.552;8.904;2023-02-28T15:38:01;16.60;;;13.77;;
8622;SDS011;4349;47.552;8.904;2023-02-28T15:40:29;15.40;;;13.80;;
8622;SDS011;4349;47.552;8.904;2023-02-28T15:42:59;14.97;;;13.47;;
8622;SDS011;4349;47.552;8.904;2023-02-28T15:45:34;15.13;;;12.80;;
8622;SDS011;4349;47.552;8.904;2023-02-28T15:48:04;15.63;;;13.87;;
8622;SDS011;4349;47.552;8.904;2023-02-28T15:50:41;15.03;;;13.43;;
8622;SDS011;4349;47.552;8.904;2023-02-28T15:53:13;14.77;;;13.17;;
8622;SDS011;4349;47.552;8.904;2023-02-28T15:55:42;16.83;;;13.77;;
8622;SDS011;4349;47.552;8.904;2023-02-28T15:58:11;17.27;;;14.37;;
8622;SDS011;4349;47.552;8.904;2023-02-28T16:00:43;15.50;;;12.90;;
8622;SDS011;4349;47.552;8.904;2023-02-28T16:03:25;18.83;;;14.90;;